Time;durP1;ratioP1;P1;durP2;ratioP2;P2;SDS_P1;SDS_P2;PMS_P1;PMS_P2;Temp;Humidity;BMP_temperature;BMP_pressure;BME280_temperature;BME280_humidity;BME280_pressure;Samples;Min_cycle;Max_cycle;Signal;HPM_P1;HPM_P2
2021/07/04 00:02:14;;;;;;;;;;;20.40;99.90;;;;;;5028312;28;19993;-61
2021/07/04 00:04:39;;;;;;;;;;;20.30;99.90;;;;;;5028570;28;20000;-61
2021/07/04 00:07:05;;;;;;;;;;;20.30;99.90;;;;;;5028002;28;19993;-61
2021/07/04 00:09:31;;;;;;;;;;;20.30;99.90;;;;;;5028224;28;19989;-61
2021/07/04 00:11:56;;;;;;;;;;;20.30;99.90;;;;;;5027619;28;20071;-61
2021/07/04 00:14:24;;;;;;;;;;;20.30;99.90;;;;;;5028087;28;19985;-61
2021/07/04 00:16:50;;;;;;;;;;;20.30;99.90;;;;;;5028603;28;20326;-61
2021/07/04 00:19:17;;;;;;;;;;;20.30;99.90;;;;;;5028632;28;20008;-61
2021/07/04 00:21:42;;;;;;;;;;;20.20;99.90;;;;;;5027527;28;20009;-61
2021/07/04 00:24:09;;;;;;;;;;;20.10;99.90;;;;;;5027299;28;20537;-61
2021/07/04 00:26:35;;;;;;;;;;;20.10;99.90;;;;;;5027684;28;20306;-61
2021/07/04 00:29:01;;;;;;;;;;;20.00;99.90;;;;;;5027862;28;20061;-61
2021/07/04 00:31:26;;;;;;;;;;;20.10;99.90;;;;;;5027631;28;20550;-61
2021/07/04 00:33:53;;;;;;;;;;;20.10;99.90;;;;;;5027168;28;20414;-61
2021/07/04 00:36:20;;;;;;;;;;;20.10;99.90;;;;;;5028083;28;20013;-61
2021/07/04 00:38:45;;;;;;;;;;;20.10;99.90;;;;;;5028474;28;19978;-61
2021/07/04 00:41:11;;;;;;;;;;;20.10;99.90;;;;;;5027428;28;20407;-61
2021/07/04 00:43:36;;;;;;;;;;;20.10;99.90;;;;;;5027864;28;19997;-61
2021/07/04 00:46:03;;;;;;;;;;;20.00;99.90;;;;;;5027559;28;20387;-61
2021/07/04 00:48:28;;;;;;;;;;;19.90;99.90;;;;;;5027331;28;19989;-61
2021/07/04 00:50:54;;;;;;;;;;;19.90;99.90;;;;;;5027539;28;20096;-61
2021/07/04 00:53:20;;;;;;;;;;;20.00;99.90;;;;;;5027369;28;19996;-61
2021/07/04 00:55:47;;;;;;;;;;;19.90;99.90;;;;;;5028079;28;19982;-61
2021/07/04 00:58:12;;;;;;;;;;;19.90;99.90;;;;;;5026807;28;19982;-61
2021/07/04 01:00:39;;;;;;;;;;;19.80;99.90;;;;;;5027053;28;20048;-61
2021/07/04 01:03:06;;;;;;;;;;;19.70;99.90;;;;;;5027216;28;20029;-61
2021/07/04 01:05:33;;;;;;;;;;;19.70;99.90;;;;;;5026716;28;19990;-61
2021/07/04 01:08:01;;;;;;;;;;;19.80;99.90;;;;;;5027033;28;20666;-61
2021/07/04 01:10:27;;;;;;;;;;;19.80;99.90;;;;;;5027062;28;20111;-61
2021/07/04 01:12:53;;;;;;;;;;;19.80;99.90;;;;;;5026552;28;20113;-61
2021/07/04 01:15:20;;;;;;;;;;;19.90;99.90;;;;;;5027620;28;20044;-61
2021/07/04 01:17:47;;;;;;;;;;;19.90;99.90;;;;;;5043152;28;20007;-61
2021/07/04 01:20:14;;;;;;;;;;;19.80;99.90;;;;;;5026582;28;19986;-61
2021/07/04 01:22:40;;;;;;;;;;;19.80;99.90;;;;;;5026871;28;20438;-61
2021/07/04 01:25:07;;;;;;;;;;;19.80;99.90;;;;;;5026916;28;20017;-61
2021/07/04 01:27:33;;;;;;;;;;;19.80;99.90;;;;;;5026532;28;20080;-61
2021/07/04 01:29:58;;;;;;;;;;;19.80;99.90;;;;;;5026782;28;20077;-61
2021/07/04 01:32:24;;;;;;;;;;;19.80;99.90;;;;;;5026626;28;20012;-61
2021/07/04 01:34:49;;;;;;;;;;;19.80;99.90;;;;;;5026923;28;19997;-61
2021/07/04 01:37:15;;;;;;;;;;;19.80;99.90;;;;;;5027400;28;19987;-61
2021/07/04 01:39:41;;;;;;;;;;;19.90;99.90;;;;;;5026632;28;20379;-61
2021/07/04 01:42:06;;;;;;;;;;;19.90;99.90;;;;;;5026659;28;20456;-61
2021/07/04 01:44:32;;;;;;;;;;;19.90;99.90;;;;;;5026664;28;20434;-61
2021/07/04 01:46:57;;;;;;;;;;;20.00;99.90;;;;;;5026779;28;20383;-61
2021/07/04 01:49:23;;;;;;;;;;;20.00;99.90;;;;;;5026082;28;19994;-61
2021/07/04 01:51:51;;;;;;;;;;;20.00;99.90;;;;;;5026869;28;20391;-61
2021/07/04 01:54:18;;;;;;;;;;;19.80;99.90;;;;;;5027099;28;19993;-61
2021/07/04 01:56:43;;;;;;;;;;;19.80;99.90;;;;;;5026410;28;20384;-61
2021/07/04 01:59:09;;;;;;;;;;;19.80;99.90;;;;;;5026212;28;19996;-61
2021/07/04 02:01:34;;;;;;;;;;;19.80;99.90;;;;;;5026226;28;20028;-61
2021/07/04 02:04:00;;;;;;;;;;;19.80;99.90;;;;;;5025969;28;19982;-61
2021/07/04 02:06:25;;;;;;;;;;;19.60;99.90;;;;;;5026036;28;19986;-61
2021/07/04 02:08:52;;;;;;;;;;;19.70;99.90;;;;;;5026533;28;20028;-61
2021/07/04 02:11:17;;;;;;;;;;;19.60;99.90;;;;;;5026022;28;20013;-61
2021/07/04 02:13:43;;;;;;;;;;;19.70;99.90;;;;;;5041404;28;20384;-61
2021/07/04 02:16:08;;;;;;;;;;;19.60;99.90;;;;;;5025751;28;19982;-62
2021/07/04 02:18:34;;;;;;;;;;;19.60;99.90;;;;;;5026363;28;20116;-61
2021/07/04 02:20:59;;;;;;;;;;;19.60;99.90;;;;;;5025053;28;20486;-61
2021/07/04 02:23:30;;;;;;;;;;;19.60;99.90;;;;;;5026111;28;19986;-61
2021/07/04 02:25:56;;;;;;;;;;;19.60;99.90;;;;;;5026155;28;20025;-61
2021/07/04 02:28:23;;;;;;;;;;;19.60;99.90;;;;;;5025912;28;19986;-61
2021/07/04 02:30:49;;;;;;;;;;;19.60;99.90;;;;;;5026402;28;20427;-61
2021/07/04 02:33:15;;;;;;;;;;;19.60;99.90;;;;;;5026049;28;20060;-61
2021/07/04 02:35:42;;;;;;;;;;;19.60;99.90;;;;;;5025820;28;20187;-61
2021/07/04 02:38:09;;;;;;;;;;;19.70;99.90;;;;;;5026240;28;19987;-61
2021/07/04 02:40:35;;;;;;;;;;;19.60;99.90;;;;;;5025736;28;19990;-61
2021/07/04 02:43:01;;;;;;;;;;;19.60;99.90;;;;;;5025974;28;19982;-61
2021/07/04 02:45:27;;;;;;;;;;;19.60;99.90;;;;;;5024894;28;19986;-61
2021/07/04 02:47:53;;;;;;;;;;;19.50;99.90;;;;;;5025989;28;20372;-61
2021/07/04 02:50:22;;;;;;;;;;;19.40;99.90;;;;;;5026480;28;19998;-61
2021/07/04 02:52:48;;;;;;;;;;;19.40;99.90;;;;;;5026372;28;20081;-61
2021/07/04 02:55:13;;;;;;;;;;;19.50;99.90;;;;;;5025748;28;20518;-61
2021/07/04 02:57:40;;;;;;;;;;;19.40;99.90;;;;;;5025696;28;20041;-61
2021/07/04 03:00:07;;;;;;;;;;;19.50;99.90;;;;;;5025707;28;19982;-61
2021/07/04 03:02:32;;;;;;;;;;;19.50;99.90;;;;;;5025373;28;19986;-61
2021/07/04 03:04:58;;;;;;;;;;;19.40;99.90;;;;;;5025456;28;19982;-61
2021/07/04 03:07:23;;;;;;;;;;;19.40;99.90;;;;;;5025968;28;19986;-61
2021/07/04 03:09:50;;;;;;;;;;;19.30;99.90;;;;;;5026323;28;19990;-61
2021/07/04 03:12:16;;;;;;;;;;;19.20;99.90;;;;;;5025759;28;20427;-63
2021/07/04 03:14:42;;;;;;;;;;;19.30;99.90;;;;;;5026061;28;20392;-61
2021/07/04 03:17:08;;;;;;;;;;;19.30;99.90;;;;;;5025600;28;20013;-62
2021/07/04 03:19:33;;;;;;;;;;;19.30;99.90;;;;;;5025693;28;19982;-62
2021/07/04 03:21:59;;;;;;;;;;;19.20;99.90;;;;;;5025476;28;20452;-62
2021/07/04 03:24:24;;;;;;;;;;;19.30;99.90;;;;;;5025875;28;19986;-62
2021/07/04 03:26:50;;;;;;;;;;;19.30;99.90;;;;;;5026380;28;19982;-62
2021/07/04 03:29:15;;;;;;;;;;;19.30;99.90;;;;;;5028791;28;20036;-62
2021/07/04 03:31:41;;;;;;;;;;;19.20;99.90;;;;;;5028855;28;20506;-62
2021/07/04 03:34:07;;;;;;;;;;;19.30;99.90;;;;;;5028879;28;20017;-62
2021/07/04 03:36:32;;;;;;;;;;;19.20;99.90;;;;;;5029227;28;20364;-62
2021/07/04 03:38:59;;;;;;;;;;;19.20;99.90;;;;;;5028923;28;20065;-62
2021/07/04 03:41:24;;;;;;;;;;;19.20;99.90;;;;;;5028762;28;20456;-62
2021/07/04 03:43:50;;;;;;;;;;;19.20;99.90;;;;;;5028811;28;19987;-61
2021/07/04 03:46:15;;;;;;;;;;;19.20;99.90;;;;;;5029154;28;19982;-62
2021/07/04 03:48:41;;;;;;;;;;;19.30;99.90;;;;;;5028467;28;19990;-62
2021/07/04 03:51:06;;;;;;;;;;;19.20;99.90;;;;;;5043606;28;19994;-62
2021/07/04 03:53:32;;;;;;;;;;;19.20;99.90;;;;;;5028746;28;19998;-61
2021/07/04 03:55:57;;;;;;;;;;;19.20;99.90;;;;;;5028625;28;19983;-62
2021/07/04 03:58:23;;;;;;;;;;;19.10;99.90;;;;;;5028429;28;19982;-62
2021/07/04 04:00:49;;;;;;;;;;;19.10;99.90;;;;;;5028900;28;20045;-62
2021/07/04 04:03:15;;;;;;;;;;;19.10;99.90;;;;;;5028579;28;19986;-62
2021/07/04 04:05:40;;;;;;;;;;;19.10;99.90;;;;;;5028542;28;19990;-62
2021/07/04 04:08:07;;;;;;;;;;;19.10;99.90;;;;;;5028418;28;20509;-62
2021/07/04 04:10:33;;;;;;;;;;;19.20;99.90;;;;;;5028630;28;19982;-62
2021/07/04 04:12:58;;;;;;;;;;;19.20;99.90;;;;;;5031507;28;20519;-62
2021/07/04 04:15:24;;;;;;;;;;;19.20;99.90;;;;;;5048326;28;19998;-62
2021/07/04 04:17:50;;;;;;;;;;;19.20;99.90;;;;;;5046536;28;20012;-62
2021/07/04 04:20:16;;;;;;;;;;;19.30;99.90;;;;;;5047842;28;20028;-61
2021/07/04 04:22:42;;;;;;;;;;;19.30;99.90;;;;;;5047749;28;20416;-62
2021/07/04 04:25:09;;;;;;;;;;;19.30;99.90;;;;;;5047917;28;20029;-62
2021/07/04 04:27:35;;;;;;;;;;;19.20;99.90;;;;;;5047659;28;20027;-61
2021/07/04 04:30:01;;;;;;;;;;;19.20;99.90;;;;;;5046527;28;19990;-62
2021/07/04 04:32:26;;;;;;;;;;;19.20;99.90;;;;;;5047661;28;20013;-62
2021/07/04 04:34:52;;;;;;;;;;;19.20;99.90;;;;;;5047557;28;19981;-62
2021/07/04 04:37:18;;;;;;;;;;;19.30;99.90;;;;;;5048248;28;19982;-62
2021/07/04 04:39:43;;;;;;;;;;;19.10;99.90;;;;;;5047881;28;19985;-62
2021/07/04 04:42:09;;;;;;;;;;;19.20;99.90;;;;;;5047512;28;20375;-62
2021/07/04 04:44:35;;;;;;;;;;;19.20;99.90;;;;;;5047506;28;20396;-62
2021/07/04 04:47:01;;;;;;;;;;;19.20;99.90;;;;;;5047490;28;19982;-62
2021/07/04 04:49:26;;;;;;;;;;;19.10;99.90;;;;;;5046203;28;20009;-62
2021/07/04 04:51:52;;;;;;;;;;;19.30;99.90;;;;;;5047026;28;20028;-62
2021/07/04 04:54:18;;;;;;;;;;;19.20;99.90;;;;;;5048094;28;19982;-62
2021/07/04 04:56:44;;;;;;;;;;;19.20;99.90;;;;;;5047937;28;20080;-62
2021/07/04 04:59:09;;;;;;;;;;;19.30;99.90;;;;;;5047065;28;20126;-62
2021/07/04 05:01:35;;;;;;;;;;;19.30;99.90;;;;;;5046371;28;20072;-62
2021/07/04 05:04:01;;;;;;;;;;;19.10;99.90;;;;;;5046997;28;19989;-62
2021/07/04 05:06:27;;;;;;;;;;;19.10;99.90;;;;;;5046995;28;19982;-62
2021/07/04 05:08:52;;;;;;;;;;;19.00;99.90;;;;;;5047152;28;20523;-62
2021/07/04 05:11:18;;;;;;;;;;;18.90;99.90;;;;;;5046947;28;19988;-62
2021/07/04 05:13:44;;;;;;;;;;;18.90;99.90;;;;;;5047630;28;19982;-61
2021/07/04 05:16:10;;;;;;;;;;;18.90;99.90;;;;;;5047132;28;19986;-62
2021/07/04 05:18:35;;;;;;;;;;;18.90;99.90;;;;;;5046629;28;19994;-62
2021/07/04 05:21:02;;;;;;;;;;;18.90;99.90;;;;;;5046158;28;19982;-61
2021/07/04 05:23:28;;;;;;;;;;;18.90;99.90;;;;;;5046965;28;20036;-61
2021/07/04 05:25:56;;;;;;;;;;;18.90;99.90;;;;;;5046965;28;19982;-61
2021/07/04 05:28:22;;;;;;;;;;;18.90;99.90;;;;;;5046390;28;19986;-61
2021/07/04 05:30:48;;;;;;;;;;;18.90;99.90;;;;;;5046604;28;20040;-62
2021/07/04 05:33:14;;;;;;;;;;;19.00;99.90;;;;;;5047033;28;20010;-62
2021/07/04 05:35:39;;;;;;;;;;;19.00;99.90;;;;;;5045734;28;19996;-62
2021/07/04 05:38:06;;;;;;;;;;;19.00;99.90;;;;;;5046673;28;20357;-62
2021/07/04 05:40:31;;;;;;;;;;;19.10;99.90;;;;;;5046556;28;20076;-62
2021/07/04 05:42:57;;;;;;;;;;;19.20;99.90;;;;;;5046234;28;20061;-62
2021/07/04 05:45:24;;;;;;;;;;;19.30;99.90;;;;;;5046486;28;20008;-62
2021/07/04 05:47:50;;;;;;;;;;;19.30;99.90;;;;;;5046494;28;19981;-62
2021/07/04 05:50:15;;;;;;;;;;;19.40;99.90;;;;;;5046300;28;19997;-62
2021/07/04 05:52:41;;;;;;;;;;;19.50;99.90;;;;;;5034268;28;20037;-61
2021/07/04 05:55:07;;;;;;;;;;;19.50;99.90;;;;;;5026931;28;20077;-62
2021/07/04 05:57:32;;;;;;;;;;;19.50;99.90;;;;;;5028164;28;20041;-62
2021/07/04 05:59:58;;;;;;;;;;;19.50;99.90;;;;;;5042145;28;19993;-62
2021/07/04 06:02:23;;;;;;;;;;;19.50;99.90;;;;;;5045944;28;20033;-62
2021/07/04 06:04:49;;;;;;;;;;;19.50;99.90;;;;;;5046134;28;19986;-62
2021/07/04 06:07:14;;;;;;;;;;;19.50;99.90;;;;;;5047131;28;19982;-62
2021/07/04 06:09:40;;;;;;;;;;;19.40;99.90;;;;;;5046124;28;19988;-62
2021/07/04 06:12:06;;;;;;;;;;;19.50;99.90;;;;;;5043062;28;20009;-62
2021/07/04 06:14:31;;;;;;;;;;;19.60;99.90;;;;;;5047089;28;20013;-62
2021/07/04 06:16:58;;;;;;;;;;;19.70;99.90;;;;;;5027942;28;19990;-62
2021/07/04 06:19:23;;;;;;;;;;;19.80;99.90;;;;;;5026207;28;19989;-62
2021/07/04 06:21:49;;;;;;;;;;;19.80;99.90;;;;;;5024909;28;20275;-62
2021/07/04 06:24:14;;;;;;;;;;;19.60;99.90;;;;;;5025111;28;19986;-62
2021/07/04 06:26:41;;;;;;;;;;;19.40;99.90;;;;;;5025200;28;20476;-62
2021/07/04 06:29:07;;;;;;;;;;;19.50;99.90;;;;;;5024771;28;19986;-62
2021/07/04 06:31:33;;;;;;;;;;;19.40;99.90;;;;;;5025746;28;20037;-62
2021/07/04 06:33:58;;;;;;;;;;;19.50;99.90;;;;;;5027042;28;20472;-62
2021/07/04 06:36:24;;;;;;;;;;;19.50;99.90;;;;;;5025026;28;20051;-62
2021/07/04 06:38:51;;;;;;;;;;;19.60;99.90;;;;;;5025955;28;20468;-62
2021/07/04 06:41:16;;;;;;;;;;;19.60;99.90;;;;;;5025966;28;20017;-62
2021/07/04 06:43:42;;;;;;;;;;;19.70;99.90;;;;;;5025812;28;20624;-62
2021/07/04 06:46:08;;;;;;;;;;;19.60;99.90;;;;;;5025273;28;19982;-63
2021/07/04 06:48:34;;;;;;;;;;;19.60;99.90;;;;;;5024997;28;20052;-62
2021/07/04 06:50:59;;;;;;;;;;;19.60;99.90;;;;;;5026477;28;19990;-62
2021/07/04 06:53:25;;;;;;;;;;;19.40;99.90;;;;;;5025556;28;20431;-62
2021/07/04 06:55:50;;;;;;;;;;;19.40;99.90;;;;;;5025600;28;20361;-62
2021/07/04 06:58:16;;;;;;;;;;;19.50;99.90;;;;;;5025619;28;20456;-62
2021/07/04 07:00:41;;;;;;;;;;;19.50;99.90;;;;;;5025945;28;19990;-62
2021/07/04 07:03:07;;;;;;;;;;;19.40;99.90;;;;;;5029700;28;20047;-62
2021/07/04 07:05:32;;;;;;;;;;;19.50;99.90;;;;;;5029425;28;20512;-62
2021/07/04 07:07:58;;;;;;;;;;;19.40;99.90;;;;;;5029926;28;19988;-62
2021/07/04 07:10:23;;;;;;;;;;;19.40;99.90;;;;;;5028399;28;19986;-62
2021/07/04 07:12:49;;;;;;;;;;;19.30;99.90;;;;;;5028769;28;20523;-62
2021/07/04 07:15:15;;;;;;;;;;;19.20;99.90;;;;;;5028306;28;19986;-62
2021/07/04 07:17:40;;;;;;;;;;;19.10;99.90;;;;;;5029232;28;19986;-60
2021/07/04 07:20:06;;;;;;;;;;;18.90;99.90;;;;;;5029318;28;20446;-56
2021/07/04 07:22:32;;;;;;;;;;;18.40;99.90;;;;;;5028989;28;19983;-56
2021/07/04 07:24:58;;;;;;;;;;;18.20;99.90;;;;;;5029961;28;20470;-57
2021/07/04 07:27:23;;;;;;;;;;;18.00;99.90;;;;;;5027795;28;19986;-57
2021/07/04 07:29:49;;;;;;;;;;;18.10;99.90;;;;;;5028687;28;20414;-57
2021/07/04 07:32:14;;;;;;;;;;;18.10;99.90;;;;;;5029043;28;20059;-56
2021/07/04 07:34:40;;;;;;;;;;;18.10;99.90;;;;;;5028891;28;20381;-57
2021/07/04 07:37:06;;;;;;;;;;;18.10;99.90;;;;;;5028944;28;19982;-57
2021/07/04 07:39:31;;;;;;;;;;;18.20;99.90;;;;;;5029323;28;20119;-57
2021/07/04 07:41:57;;;;;;;;;;;18.30;99.90;;;;;;5029524;28;19986;-57
2021/07/04 07:44:23;;;;;;;;;;;18.30;99.90;;;;;;5029020;28;20415;-57
2021/07/04 07:46:49;;;;;;;;;;;18.30;99.90;;;;;;5028463;28;20502;-57
2021/07/04 07:49:16;;;;;;;;;;;18.40;99.90;;;;;;5028354;28;20005;-58
2021/07/04 07:51:42;;;;;;;;;;;18.50;99.90;;;;;;5028438;28;20013;-58
2021/07/04 07:54:08;;;;;;;;;;;18.60;99.90;;;;;;5028613;28;20057;-58
2021/07/04 07:56:33;;;;;;;;;;;18.80;99.90;;;;;;5028476;28;20080;-58
2021/07/04 07:59:00;;;;;;;;;;;19.00;99.90;;;;;;5029133;28;19986;-58
2021/07/04 08:01:25;;;;;;;;;;;19.20;99.90;;;;;;5028243;28;20047;-59
2021/07/04 08:03:51;;;;;;;;;;;19.20;99.90;;;;;;5028248;28;20527;-59
2021/07/04 08:06:16;;;;;;;;;;;19.30;99.90;;;;;;5028463;28;19993;-59
2021/07/04 08:08:42;;;;;;;;;;;19.10;99.90;;;;;;5027810;28;20439;-59
2021/07/04 08:11:08;;;;;;;;;;;19.10;99.90;;;;;;5028217;28;20376;-59
2021/07/04 08:13:35;;;;;;;;;;;19.10;99.90;;;;;;5033849;28;20012;-59
2021/07/04 08:16:00;;;;;;;;;;;19.10;99.90;;;;;;5047108;28;20434;-59
2021/07/04 08:18:26;;;;;;;;;;;19.00;99.90;;;;;;5047916;28;20081;-59
2021/07/04 08:20:52;;;;;;;;;;;19.00;99.90;;;;;;5047736;28;20021;-59
2021/07/04 08:23:18;;;;;;;;;;;18.80;99.90;;;;;;5047756;28;19992;-59
2021/07/04 08:25:43;;;;;;;;;;;18.70;99.90;;;;;;5047346;28;19994;-59
2021/07/04 08:28:09;;;;;;;;;;;18.60;99.90;;;;;;5047827;28;20019;-59
2021/07/04 08:30:34;;;;;;;;;;;18.80;99.90;;;;;;5047653;28;20032;-59
2021/07/04 08:33:00;;;;;;;;;;;18.70;99.90;;;;;;5048109;28;20049;-59
2021/07/04 08:35:25;;;;;;;;;;;18.90;99.90;;;;;;5047569;28;20195;-59
2021/07/04 08:37:52;;;;;;;;;;;18.80;99.90;;;;;;5047357;28;19986;-60
2021/07/04 08:40:17;;;;;;;;;;;18.90;99.90;;;;;;5047711;28;19986;-59
2021/07/04 08:42:44;;;;;;;;;;;19.00;99.90;;;;;;5047957;28;19982;-59
2021/07/04 08:45:10;;;;;;;;;;;19.00;99.90;;;;;;5046098;28;19993;-60
2021/07/04 08:47:36;;;;;;;;;;;19.10;99.90;;;;;;5047370;28;19986;-60
2021/07/04 08:50:02;;;;;;;;;;;19.20;99.90;;;;;;5047470;28;20487;-60
2021/07/04 08:52:28;;;;;;;;;;;19.30;99.90;;;;;;5047331;28;20013;-59
2021/07/04 08:54:53;;;;;;;;;;;19.40;99.90;;;;;;5047244;28;20044;-59
2021/07/04 08:57:19;;;;;;;;;;;19.40;99.90;;;;;;5047439;28;19986;-59
2021/07/04 08:59:46;;;;;;;;;;;19.50;99.90;;;;;;5047682;28;20084;-60
2021/07/04 09:02:14;;;;;;;;;;;19.60;99.90;;;;;;5047723;28;19982;-60
2021/07/04 09:04:56;;;;;;;;;;;19.60;99.90;;;;;;5047065;28;20025;-59
2021/07/04 09:07:25;;;;;;;;;;;19.70;99.90;;;;;;5045578;28;20613;-60
2021/07/04 09:10:02;;;;;;;;;;;19.80;99.90;;;;;;5046949;28;19985;-60
2021/07/04 09:12:54;;;;;;;;;;;19.80;99.90;;;;;;5046406;28;20068;-60
2021/07/04 09:15:21;;;;;;;;;;;19.90;99.90;;;;;;5046190;28;19989;-60
2021/07/04 09:17:48;;;;;;;;;;;19.90;99.90;;;;;;5046877;28;19990;-59
2021/07/04 09:20:18;;;;;;;;;;;20.00;99.90;;;;;;5047426;28;19988;-60
2021/07/04 09:22:45;;;;;;;;;;;20.00;99.90;;;;;;5047624;28;19986;-59
2021/07/04 09:25:18;;;;;;;;;;;20.00;99.90;;;;;;5045318;28;19994;-60
2021/07/04 09:28:03;;;;;;;;;;;19.90;99.90;;;;;;5046753;28;19985;-59
2021/07/04 09:30:55;;;;;;;;;;;19.90;99.90;;;;;;5046577;28;19990;-59
2021/07/04 09:33:29;;;;;;;;;;;19.80;99.90;;;;;;5046123;28;20013;-59
2021/07/04 09:35:57;;;;;;;;;;;19.90;99.90;;;;;;5046309;28;19982;-59
2021/07/04 09:38:25;;;;;;;;;;;19.90;99.90;;;;;;5046333;28;19990;-59
2021/07/04 09:40:51;;;;;;;;;;;19.80;99.90;;;;;;5046331;28;20108;-59
2021/07/04 09:43:18;;;;;;;;;;;19.60;99.90;;;;;;5046432;28;20468;-59
2021/07/04 09:45:57;;;;;;;;;;;19.50;99.90;;;;;;5046806;28;20071;-59
2021/07/04 09:48:35;;;;;;;;;;;19.60;99.90;;;;;;5046653;28;20069;-59
2021/07/04 09:51:11;;;;;;;;;;;19.60;99.90;;;;;;5045997;28;19997;-59
2021/07/04 09:53:39;;;;;;;;;;;19.50;99.90;;;;;;5045544;28;21432;-59
2021/07/04 09:56:07;;;;;;;;;;;19.60;99.90;;;;;;5046592;28;19986;-59
2021/07/04 09:58:34;;;;;;;;;;;19.60;99.90;;;;;;5045800;28;19988;-59
2021/07/04 10:00:59;;;;;;;;;;;19.80;99.90;;;;;;5045025;28;19997;-59
2021/07/04 10:03:25;;;;;;;;;;;19.90;99.90;;;;;;5044622;28;20043;-58
2021/07/04 10:05:51;;;;;;;;;;;19.80;99.90;;;;;;5045917;28;20451;-59
2021/07/04 10:08:22;;;;;;;;;;;19.80;99.90;;;;;;5045433;28;20028;-58
2021/07/04 10:10:49;;;;;;;;;;;19.80;99.90;;;;;;5046355;28;19986;-58
2021/07/04 10:13:15;;;;;;;;;;;19.80;99.90;;;;;;5040833;28;20013;-58
2021/07/04 10:15:41;;;;;;;;;;;19.60;99.90;;;;;;5025895;28;20080;-57
2021/07/04 10:18:10;;;;;;;;;;;19.50;99.90;;;;;;5026117;28;19998;-56
2021/07/04 10:20:36;;;;;;;;;;;19.40;99.90;;;;;;5025999;28;19993;-57
2021/07/04 10:23:05;;;;;;;;;;;19.30;99.90;;;;;;5025954;28;20415;-55
2021/07/04 10:25:30;;;;;;;;;;;19.30;99.90;;;;;;5026090;28;20081;-56
2021/07/04 10:27:57;;;;;;;;;;;19.20;99.90;;;;;;5025951;28;20077;-56
2021/07/04 10:30:22;;;;;;;;;;;19.10;99.90;;;;;;5025781;28;20018;-57
2021/07/04 10:33:06;;;;;;;;;;;19.10;99.90;;;;;;5025784;28;20107;-56
2021/07/04 10:35:33;;;;;;;;;;;19.20;99.90;;;;;;5026150;28;19990;-56
2021/07/04 10:38:12;;;;;;;;;;;19.30;99.90;;;;;;5029866;28;20030;-56
2021/07/04 10:40:38;;;;;;;;;;;19.30;99.90;;;;;;5029787;28;19982;-57
2021/07/04 10:43:04;;;;;;;;;;;19.20;99.90;;;;;;5029841;28;19993;-56
2021/07/04 10:45:33;;;;;;;;;;;18.90;99.90;;;;;;5030029;28;20395;-55
2021/07/04 10:48:18;;;;;;;;;;;18.30;99.90;;;;;;5029450;28;20341;-56
2021/07/04 10:51:02;;;;;;;;;;;17.50;99.90;;;;;;5030786;28;19998;-55
2021/07/04 10:53:47;;;;;;;;;;;17.30;99.90;;;;;;5028988;28;20006;-55
2021/07/04 10:56:31;;;;;;;;;;;17.20;99.90;;;;;;5030277;28;19990;-56
2021/07/04 10:59:00;;;;;;;;;;;17.40;99.90;;;;;;5029396;28;19982;-56
2021/07/04 11:01:44;;;;;;;;;;;17.50;99.90;;;;;;5029048;28;19982;-56
2021/07/04 11:04:33;;;;;;;;;;;17.60;99.90;;;;;;5029257;28;20077;-57
2021/07/04 11:06:59;;;;;;;;;;;17.50;99.90;;;;;;5031679;28;19990;-56
2021/07/04 11:09:24;;;;;;;;;;;17.90;99.90;;;;;;5029202;28;20032;-57
2021/07/04 11:11:50;;;;;;;;;;;18.00;99.90;;;;;;5028827;28;20487;-57
2021/07/04 11:14:16;;;;;;;;;;;18.00;99.90;;;;;;5029526;28;19988;-58
2021/07/04 11:17:04;;;;;;;;;;;18.20;99.90;;;;;;5029711;28;20060;-58
2021/07/04 11:19:31;;;;;;;;;;;18.30;99.90;;;;;;5031128;28;19989;-58
2021/07/04 11:21:56;;;;;;;;;;;18.20;99.90;;;;;;5029150;28;20008;-58
2021/07/04 11:24:23;;;;;;;;;;;18.30;99.90;;;;;;5029008;28;19982;-58
2021/07/04 11:27:19;;;;;;;;;;;18.00;99.90;;;;;;5029278;28;19996;-57
2021/07/04 11:30:03;;;;;;;;;;;18.10;99.90;;;;;;5029261;28;19990;-58
2021/07/04 11:32:28;;;;;;;;;;;18.30;99.90;;;;;;5028534;28;20010;-58
2021/07/04 11:34:55;;;;;;;;;;;18.40;99.90;;;;;;5028913;28;20028;-58
2021/07/04 11:37:35;;;;;;;;;;;18.50;99.90;;;;;;5028870;28;20088;-58
2021/07/04 11:40:00;;;;;;;;;;;18.30;99.90;;;;;;5028953;28;19989;-58
2021/07/04 11:42:26;;;;;;;;;;;18.60;99.90;;;;;;5028068;28;19986;-58
2021/07/04 11:44:51;;;;;;;;;;;18.60;99.90;;;;;;5028509;28;19982;-58
2021/07/04 11:47:17;;;;;;;;;;;18.30;99.90;;;;;;5042802;28;20041;-59
2021/07/04 11:49:43;;;;;;;;;;;18.60;99.90;;;;;;5029111;28;20047;-59
2021/07/04 11:52:17;;;;;;;;;;;18.70;99.90;;;;;;5028606;28;20516;-59
2021/07/04 11:54:43;;;;;;;;;;;19.00;99.90;;;;;;5029045;28;20511;-58
2021/07/04 11:59:58;;;;;;;;;;;19.30;99.90;;;;;;5028384;28;19993;-58
2021/07/04 12:02:25;;;;;;;;;;;19.50;99.90;;;;;;5028245;28;19988;-58
2021/07/04 12:04:50;;;;;;;;;;;19.60;99.90;;;;;;5028554;28;19986;-58
2021/07/04 12:07:20;;;;;;;;;;;19.70;99.90;;;;;;5027505;28;20398;-59
2021/07/04 12:09:47;;;;;;;;;;;19.90;99.90;;;;;;5048538;28;20460;-59
2021/07/04 12:12:13;;;;;;;;;;;20.10;99.90;;;;;;5047068;28;20112;-59
2021/07/04 12:14:40;;;;;;;;;;;20.30;99.90;;;;;;5029833;28;20065;-59
2021/07/04 12:17:15;;;;;;;;;;;20.40;99.90;;;;;;5030253;28;20376;-59
2021/07/04 12:19:41;;;;;;;;;;;20.70;99.90;;;;;;5029939;28;20368;-59
2021/07/04 12:22:10;;;;;;;;;;;20.90;99.90;;;;;;5029766;28;19982;-59
2021/07/04 12:24:39;;;;;;;;;;;20.80;99.90;;;;;;5029044;28;20500;-59
2021/07/04 12:27:04;;;;;;;;;;;21.00;99.90;;;;;;5028319;28;19986;-59
2021/07/04 12:29:30;;;;;;;;;;;21.40;99.90;;;;;;5029515;28;19986;-59
2021/07/04 12:31:59;;;;;;;;;;;21.70;99.90;;;;;;5028625;28;20387;-59
2021/07/04 12:34:25;;;;;;;;;;;21.70;99.90;;;;;;5029701;28;19986;-59
2021/07/04 12:36:52;;;;;;;;;;;21.90;99.90;;;;;;5028781;28;19986;-59
2021/07/04 12:39:17;;;;;;;;;;;21.90;99.90;;;;;;5029464;28;19982;-59
2021/07/04 12:41:43;;;;;;;;;;;22.10;99.90;;;;;;5028508;28;19986;-59
2021/07/04 12:44:12;;;;;;;;;;;22.20;99.90;;;;;;5029029;28;20009;-60
2021/07/04 12:46:38;;;;;;;;;;;22.30;99.90;;;;;;5029691;28;19986;-60
2021/07/04 12:49:03;;;;;;;;;;;22.30;99.90;;;;;;5028931;28;19998;-60
2021/07/04 12:51:31;;;;;;;;;;;22.40;99.90;;;;;;5029155;28;19982;-60
2021/07/04 12:53:56;;;;;;;;;;;22.40;99.90;;;;;;5028853;28;19987;-60
2021/07/04 12:56:22;;;;;;;;;;;22.30;99.90;;;;;;5029093;28;20032;-60
2021/07/04 12:59:00;;;;;;;;;;;22.10;99.90;;;;;;5028705;28;20457;-60
2021/07/04 13:01:30;;;;;;;;;;;22.10;99.90;;;;;;5027110;28;20089;-60
2021/07/04 13:04:05;;;;;;;;;;;22.10;99.90;;;;;;5028814;28;19998;-60
2021/07/04 13:06:31;;;;;;;;;;;21.80;99.90;;;;;;5028763;28;19985;-60
2021/07/04 13:08:57;;;;;;;;;;;21.70;99.90;;;;;;5028990;28;20043;-60
2021/07/04 13:11:24;;;;;;;;;;;21.60;99.90;;;;;;5028242;28;20282;-60
2021/07/04 13:13:53;;;;;;;;;;;21.70;99.90;;;;;;5028463;28;19993;-60
2021/07/04 13:16:20;;;;;;;;;;;21.60;99.90;;;;;;5028775;28;20037;-60
2021/07/04 13:18:45;;;;;;;;;;;21.70;99.90;;;;;;5028406;28;20460;-60
2021/07/04 13:21:25;;;;;;;;;;;21.70;99.90;;;;;;5028891;28;19997;-60
2021/07/04 13:24:11;;;;;;;;;;;21.80;99.90;;;;;;5028614;28;19990;-60
2021/07/04 13:26:36;;;;;;;;;;;21.80;99.90;;;;;;5028414;28;20090;-60
2021/07/04 13:29:17;;;;;;;;;;;21.80;99.90;;;;;;5028042;28;20080;-60
2021/07/04 13:31:43;;;;;;;;;;;21.70;99.90;;;;;;5027736;28;19988;-60
2021/07/04 13:34:21;;;;;;;;;;;21.60;99.90;;;;;;5028588;28;19986;-60
2021/07/04 13:36:56;;;;;;;;;;;21.50;99.90;;;;;;5028814;28;20040;-60
2021/07/04 13:39:22;;;;;;;;;;;21.50;99.90;;;;;;5027404;28;20017;-60
2021/07/04 13:41:48;;;;;;;;;;;21.60;99.90;;;;;;5027510;28;20024;-60
2021/07/04 13:44:13;;;;;;;;;;;21.70;99.90;;;;;;5028144;28;19990;-60
2021/07/04 13:46:39;;;;;;;;;;;21.60;99.90;;;;;;5028589;28;19986;-60
2021/07/04 13:49:04;;;;;;;;;;;21.60;99.90;;;;;;5028262;28;20460;-60
2021/07/04 13:51:31;;;;;;;;;;;21.60;99.90;;;;;;5027911;28;20068;-60
2021/07/04 13:53:57;;;;;;;;;;;21.70;99.90;;;;;;5028106;28;19993;-60
2021/07/04 13:56:24;;;;;;;;;;;21.90;99.90;;;;;;5027881;28;19990;-60
2021/07/04 13:58:50;;;;;;;;;;;22.00;99.90;;;;;;5027912;28;19986;-60
2021/07/04 14:01:15;;;;;;;;;;;22.10;99.90;;;;;;5027908;28;20076;-60
2021/07/04 14:03:41;;;;;;;;;;;22.10;99.90;;;;;;5028528;28;20093;-60
2021/07/04 14:06:06;;;;;;;;;;;22.20;99.90;;;;;;5025673;28;20137;-60
2021/07/04 14:08:32;;;;;;;;;;;22.20;99.90;;;;;;5026256;28;20076;-60
2021/07/04 14:10:58;;;;;;;;;;;22.20;99.90;;;;;;5034055;28;19997;-60
2021/07/04 14:13:24;;;;;;;;;;;22.30;99.90;;;;;;5045925;28;20006;-60
2021/07/04 14:15:50;;;;;;;;;;;22.50;99.90;;;;;;5045858;28;20012;-60
2021/07/04 14:18:17;;;;;;;;;;;22.80;99.90;;;;;;5039780;28;20068;-60
2021/07/04 14:20:43;;;;;;;;;;;23.30;99.90;;;;;;5032463;28;20043;-60